Time;durP1;ratioP1;P1;durP2;ratioP2;P2;SDS_P1;SDS_P2;PMS_P1;PMS_P2;Temp;Humidity;BMP_temperature;BMP_pressure;BME280_temperature;BME280_humidity;BME280_pressure;Samples;Min_cycle;Max_cycle;Signal;HPM_P1;HPM_P2
2023/10/01 00:00:17;;;;;;;12.40;4.25;;;;;;;;;;4977096;28;20065;-80
2023/10/01 00:02:43;;;;;;;10.35;3.75;;;;;;;;;;4976620;28;20082;-78
2023/10/01 00:05:09;;;;;;;11.98;3.63;;;;;;;;;;4974572;28;20491;-77
2023/10/01 00:07:37;;;;;;;10.38;3.42;;;;;;;;;;4975391;28;20471;-79
2023/10/01 00:10:10;;;;;;;12.63;3.83;;;;;;;;;;4976307;28;20054;-78
2023/10/01 00:12:39;;;;;;;12.25;3.67;;;;;;;;;;4974653;28;20134;-77
2023/10/01 00:15:12;;;;;;;11.93;3.90;;;;;;;;;;4976654;28;20125;-78
2023/10/01 00:17:41;;;;;;;14.90;4.18;;;;;;;;;;4982042;28;20125;-76
2023/10/01 00:20:23;;;;;;;12.65;4.20;;;;;;;;;;4981024;28;20058;-77
2023/10/01 00:22:52;;;;;;;20.05;4.47;;;;;;;;;;4979482;28;20039;-77
2023/10/01 00:25:18;;;;;;;14.35;3.95;;;;;;;;;;4975045;28;20490;-77
2023/10/01 00:27:45;;;;;;;16.98;3.78;;;;;;;;;;4974844;28;20034;-77
2023/10/01 00:30:11;;;;;;;12.23;4.00;;;;;;;;;;4958673;28;20385;-79
2023/10/01 00:32:37;;;;;;;18.90;4.18;;;;;;;;;;4982233;28;20097;-80
2023/10/01 00:35:03;;;;;;;12.98;3.95;;;;;;;;;;4965868;28;20051;-79
2023/10/01 00:37:29;;;;;;;12.23;3.95;;;;;;;;;;4982643;28;20046;-78
2023/10/01 00:39:54;;;;;;;11.75;3.90;;;;;;;;;;4980062;28;20031;-78
2023/10/01 00:42:24;;;;;;;15.57;4.63;;;;;;;;;;4985250;28;20030;-77
2023/10/01 00:44:49;;;;;;;11.43;3.45;;;;;;;;;;4981638;28;20057;-78
2023/10/01 00:47:16;;;;;;;15.07;3.90;;;;;;;;;;4980559;28;20541;-77
2023/10/01 00:49:46;;;;;;;17.88;4.28;;;;;;;;;;4973254;28;20030;-77
2023/10/01 00:52:12;;;;;;;16.27;4.45;;;;;;;;;;4974592;28;20041;-76
2023/10/01 00:54:38;;;;;;;13.25;4.40;;;;;;;;;;4956959;28;20031;-77
2023/10/01 00:57:03;;;;;;;15.45;4.63;;;;;;;;;;4973533;28;20049;-77
2023/10/01 00:59:33;;;;;;;14.25;3.33;;;;;;;;;;4957253;28;20038;-77
2023/10/01 01:02:05;;;;;;;16.08;4.05;;;;;;;;;;4957113;28;20117;-78
2023/10/01 01:04:36;;;;;;;14.20;4.85;;;;;;;;;;4972999;28;20029;-77
2023/10/01 01:07:05;;;;;;;11.15;3.38;;;;;;;;;;4973519;28;20459;-78
2023/10/01 01:09:30;;;;;;;17.20;3.90;;;;;;;;;;4957285;28;20058;-77
2023/10/01 01:11:56;;;;;;;10.55;3.33;;;;;;;;;;4975083;28;20073;-78
2023/10/01 01:14:22;;;;;;;14.95;3.65;;;;;;;;;;4972996;28;20110;-77
2023/10/01 01:16:48;;;;;;;13.43;3.70;;;;;;;;;;4973039;28;20502;-77
2023/10/01 01:19:15;;;;;;;13.75;3.50;;;;;;;;;;4973048;28;20089;-77
2023/10/01 01:21:42;;;;;;;10.65;3.33;;;;;;;;;;4972972;28;20446;-75
2023/10/01 01:24:11;;;;;;;10.90;3.58;;;;;;;;;;4956678;28;20487;-77
2023/10/01 01:26:37;;;;;;;15.70;3.80;;;;;;;;;;4972557;28;20027;-77
2023/10/01 01:29:17;;;;;;;11.63;3.65;;;;;;;;;;4957037;28;20034;-76
2023/10/01 01:31:45;;;;;;;10.25;3.65;;;;;;;;;;4972856;28;20038;-77
2023/10/01 01:34:12;;;;;;;15.23;3.50;;;;;;;;;;4972445;28;20498;-76
2023/10/01 01:36:39;;;;;;;10.02;4.15;;;;;;;;;;4972553;28;20038;-78
2023/10/01 01:39:27;;;;;;;11.07;3.58;;;;;;;;;;4956822;28;20125;-77
2023/10/01 01:41:54;;;;;;;14.45;3.72;;;;;;;;;;4956937;28;20795;-79
2023/10/01 01:44:20;;;;;;;13.75;3.78;;;;;;;;;;4972669;28;20035;-78
2023/10/01 01:46:49;;;;;;;11.30;3.40;;;;;;;;;;4941115;28;20027;-77
2023/10/01 01:49:15;;;;;;;;;;;;;;;;;;4957298;28;20387;-77
2023/10/01 01:51:40;;;;;;;10.60;3.33;;;;;;;;;;4956690;28;20374;-77
2023/10/01 01:54:09;;;;;;;13.40;3.22;;;;;;;;;;4940409;28;20130;-78
2023/10/01 01:56:40;;;;;;;;;;;;;;;;;;4957113;28;20126;-77
2023/10/01 01:59:13;;;;;;;16.48;4.28;;;;;;;;;;4956364;28;19914;-77
2023/10/01 02:01:38;;;;;;;10.15;3.15;;;;;;;;;;4973641;28;20031;-76
2023/10/01 02:04:04;;;;;;;7.30;2.92;;;;;;;;;;4972185;28;20035;-77
2023/10/01 02:06:31;;;;;;;14.68;3.50;;;;;;;;;;4972324;28;20505;-78
2023/10/01 02:08:57;;;;;;;10.30;3.63;;;;;;;;;;4956268;28;20073;-77
2023/10/01 02:11:23;;;;;;;10.23;3.35;;;;;;;;;;4956333;28;20483;-77
2023/10/01 02:13:54;;;;;;;11.32;3.40;;;;;;;;;;4940225;28;20050;-79
2023/10/01 02:16:42;;;;;;;9.18;3.17;;;;;;;;;;4972498;28;20049;-77
2023/10/01 02:19:21;;;;;;;9.68;3.47;;;;;;;;;;4973126;28;20038;-77
2023/10/01 02:21:49;;;;;;;14.35;3.35;;;;;;;;;;4974121;28;20077;-77
2023/10/01 02:24:19;;;;;;;9.48;3.50;;;;;;;;;;4972765;28;20053;-77
2023/10/01 02:26:46;;;;;;;11.07;3.10;;;;;;;;;;4975731;28;20031;-77
2023/10/01 02:29:16;;;;;;;13.05;3.22;;;;;;;;;;4980450;28;20046;-78
2023/10/01 02:31:48;;;;;;;11.18;3.28;;;;;;;;;;4972491;28;20019;-77
2023/10/01 02:34:14;;;;;;;10.95;3.58;;;;;;;;;;4995287;28;20021;-77
2023/10/01 02:36:42;;;;;;;9.85;3.38;;;;;;;;;;4995355;28;20038;-77
2023/10/01 02:39:19;;;;;;;12.48;3.30;;;;;;;;;;4986283;28;20031;-78
2023/10/01 02:42:03;;;;;;;15.63;3.17;;;;;;;;;;4978349;28;20031;-77
2023/10/01 02:44:29;;;;;;;11.05;3.53;;;;;;;;;;4976037;28;20483;-78
2023/10/01 02:46:58;;;;;;;9.85;2.90;;;;;;;;;;4975697;28;20046;-77
2023/10/01 02:49:23;;;;;;;;;;;;;;;;;;4977274;28;20019;-78
2023/10/01 02:51:49;;;;;;;11.32;3.10;;;;;;;;;;4976146;28;20365;-78
2023/10/01 02:54:18;;;;;;;8.57;3.53;;;;;;;;;;4960456;28;20042;-77
2023/10/01 02:57:11;;;;;;;13.02;3.28;;;;;;;;;;4978844;28;20042;-77
2023/10/01 03:02:30;;;;;;;16.73;4.65;;;;;;;;;;4961861;28;20026;-77
2023/10/01 03:05:00;;;;;;;10.88;3.28;;;;;;;;;;4978953;28;20027;-77
2023/10/01 03:07:32;;;;;;;8.75;3.25;;;;;;;;;;4964337;28;20050;-78
2023/10/01 03:10:00;;;;;;;13.35;3.67;;;;;;;;;;4983490;28;20109;-77
2023/10/01 03:12:34;;;;;;;14.73;3.75;;;;;;;;;;4968704;28;20027;-77
2023/10/01 03:17:47;;;;;;;16.88;4.20;;;;;;;;;;4974151;28;20066;-78
2023/10/01 03:21:02;;;;;;;19.20;4.93;;;;;;;;;;4990004;28;20046;-78
2023/10/01 03:23:01;;;;;;;15.50;3.60;;;;;;;;;;4987149;28;20042;-78
2023/10/01 03:25:30;;;;;;;16.48;3.47;;;;;;;;;;4989011;28;20037;-78
2023/10/01 03:27:58;;;;;;;11.52;3.38;;;;;;;;;;4989683;28;20094;-78
2023/10/01 03:30:31;;;;;;;9.20;3.40;;;;;;;;;;4984560;28;20581;-77
2023/10/01 03:33:01;;;;;;;11.38;3.38;;;;;;;;;;4978313;28;20089;-76
2023/10/01 03:35:30;;;;;;;14.23;3.47;;;;;;;;;;4978015;28;20129;-78
2023/10/01 03:38:10;;;;;;;14.90;3.50;;;;;;;;;;4976519;28;20531;-78
2023/10/01 03:40:57;;;;;;;11.25;3.30;;;;;;;;;;4976666;28;20521;-78
2023/10/01 03:43:31;;;;;;;11.57;3.90;;;;;;;;;;4974636;28;20027;-77
2023/10/01 03:46:06;;;;;;;16.27;3.45;;;;;;;;;;4976376;28;20030;-78
2023/10/01 03:48:57;;;;;;;13.27;3.85;;;;;;;;;;4957826;28;20065;-77
2023/10/01 03:51:28;;;;;;;9.95;3.63;;;;;;;;;;4975898;28;20505;-77
2023/10/01 03:53:59;;;;;;;12.90;3.30;;;;;;;;;;4975797;28;20069;-76
2023/10/01 03:56:30;;;;;;;19.42;3.65;;;;;;;;;;4975814;28;20027;-77
2023/10/01 03:58:55;;;;;;;13.57;3.47;;;;;;;;;;4958331;28;20045;-78
2023/10/01 04:01:26;;;;;;;9.25;3.05;;;;;;;;;;4958557;28;20026;-76
2023/10/01 04:03:51;;;;;;;10.93;3.00;;;;;;;;;;4974291;28;20031;-76
2023/10/01 04:06:20;;;;;;;14.15;3.75;;;;;;;;;;4973904;28;20035;-77
2023/10/01 04:08:47;;;;;;;13.93;4.28;;;;;;;;;;4974151;28;20042;-77
2023/10/01 04:11:16;;;;;;;15.60;5.55;;;;;;;;;;4975479;28;20027;-77
2023/10/01 04:13:41;;;;;;;12.52;4.22;;;;;;;;;;4974060;28;20029;-77
2023/10/01 04:16:15;;;;;;;14.40;3.92;;;;;;;;;;4974564;28;20031;-77
2023/10/01 04:18:42;;;;;;;8.85;3.13;;;;;;;;;;4975601;28;20077;-77
2023/10/01 04:23:34;;;;;;;17.65;3.92;;;;;;;;;;4957392;28;20493;-78
2023/10/01 04:26:13;;;;;;;15.15;4.30;;;;;;;;;;4975260;28;20031;-77
2023/10/01 04:28:44;;;;;;;14.57;3.47;;;;;;;;;;4974953;28;20033;-78
2023/10/01 04:31:10;;;;;;;12.18;3.83;;;;;;;;;;4957858;28;20049;-78
2023/10/01 04:33:36;;;;;;;14.20;3.67;;;;;;;;;;4957416;28;20038;-77
2023/10/01 04:36:04;;;;;;;12.20;3.50;;;;;;;;;;4973653;28;20420;-78
2023/10/01 04:38:32;;;;;;;16.55;3.25;;;;;;;;;;4974940;28;20038;-77
2023/10/01 04:41:03;;;;;;;10.98;3.67;;;;;;;;;;4973476;28;20054;-77
2023/10/01 04:43:42;;;;;;;10.20;2.92;;;;;;;;;;4974661;28;20081;-77
2023/10/01 04:46:08;;;;;;;;;;;;;;;;;;4975581;28;20403;-78
2023/10/01 04:48:36;;;;;;;17.40;3.42;;;;;;;;;;4973744;28;19921;-77
2023/10/01 04:51:02;;;;;;;13.38;3.03;;;;;;;;;;4973492;28;20035;-77
2023/10/01 04:53:28;;;;;;;11.68;3.30;;;;;;;;;;4974495;28;20030;-76
2023/10/01 04:56:00;;;;;;;12.13;4.10;;;;;;;;;;4973687;28;20038;-77
2023/10/01 04:58:29;;;;;;;16.08;3.67;;;;;;;;;;4974352;28;20062;-78
2023/10/01 05:00:55;;;;;;;9.43;3.42;;;;;;;;;;4974346;28;20110;-78
2023/10/01 05:03:36;;;;;;;10.52;3.42;;;;;;;;;;4974511;28;20026;-78
2023/10/01 05:06:04;;;;;;;16.00;3.50;;;;;;;;;;4973509;28;20067;-78
2023/10/01 05:08:38;;;;;;;19.20;3.50;;;;;;;;;;4974536;28;20029;-77
2023/10/01 05:11:13;;;;;;;12.55;3.65;;;;;;;;;;4975524;28;20118;-77
2023/10/01 05:13:42;;;;;;;11.15;3.53;;;;;;;;;;4974047;28;20115;-79
2023/10/01 05:16:13;;;;;;;14.73;3.35;;;;;;;;;;4975327;28;20038;-77
2023/10/01 05:18:42;;;;;;;9.43;3.28;;;;;;;;;;4973037;28;20026;-77
2023/10/01 05:21:12;;;;;;;13.82;3.50;;;;;;;;;;4974189;28;20045;-78
2023/10/01 05:23:39;;;;;;;11.82;3.28;;;;;;;;;;4972796;28;20102;-78
2023/10/01 05:26:05;;;;;;;13.13;3.33;;;;;;;;;;4974400;28;20031;-79
2023/10/01 05:28:31;;;;;;;11.18;3.13;;;;;;;;;;4974219;28;20027;-77
2023/10/01 05:30:58;;;;;;;12.85;3.13;;;;;;;;;;4974029;28;20027;-77
2023/10/01 05:33:24;;;;;;;10.73;2.97;;;;;;;;;;4972589;28;20114;-78
2023/10/01 05:35:53;;;;;;;10.27;3.20;;;;;;;;;;4976450;28;20035;-79
2023/10/01 05:38:19;;;;;;;11.23;3.75;;;;;;;;;;4977916;28;20031;-79
2023/10/01 05:40:44;;;;;;;11.90;3.90;;;;;;;;;;4978156;28;20035;-78
2023/10/01 05:43:13;;;;;;;10.27;3.15;;;;;;;;;;4974978;28;20034;-78
2023/10/01 05:45:41;;;;;;;14.35;4.07;;;;;;;;;;4975725;28;20277;-78
2023/10/01 05:48:10;;;;;;;8.48;3.05;;;;;;;;;;4978541;28;20029;-79
2023/10/01 05:50:41;;;;;;;11.05;3.72;;;;;;;;;;4983236;28;20022;-78
2023/10/01 05:53:09;;;;;;;12.07;3.30;;;;;;;;;;4977545;28;20118;-77
2023/10/01 05:55:37;;;;;;;13.23;3.65;;;;;;;;;;4973471;28;20061;-78
2023/10/01 05:58:13;;;;;;;6.97;3.38;;;;;;;;;;4956793;28;20051;-77
2023/10/01 06:00:45;;;;;;;10.85;3.03;;;;;;;;;;4973959;28;20038;-77
2023/10/01 06:03:15;;;;;;;7.90;2.67;;;;;;;;;;4972451;28;20027;-77
2023/10/01 06:05:49;;;;;;;11.20;3.50;;;;;;;;;;4972487;28;20050;-78
2023/10/01 06:08:17;;;;;;;13.05;2.83;;;;;;;;;;4956411;28;20117;-76
2023/10/01 06:10:59;;;;;;;7.40;2.60;;;;;;;;;;4972557;28;20027;-79
2023/10/01 06:13:28;;;;;;;11.80;2.72;;;;;;;;;;4958913;28;20106;-78
2023/10/01 06:15:56;;;;;;;;;;;;;;;;;;4960944;28;20030;-77
2023/10/01 06:18:25;;;;;;;9.13;2.47;;;;;;;;;;4977709;28;19940;-79
2023/10/01 06:20:50;;;;;;;;;;;;;;;;;;4978685;28;20104;-79
2023/10/01 06:23:16;;;;;;;10.85;2.65;;;;;;;;;;4977872;28;19914;-78
2023/10/01 06:25:43;;;;;;;13.27;3.38;;;;;;;;;;4982513;28;20023;-78
2023/10/01 06:28:09;;;;;;;11.10;2.95;;;;;;;;;;4979557;28;20394;-77
2023/10/01 06:30:40;;;;;;;15.30;3.38;;;;;;;;;;4979320;28;20027;-77
2023/10/01 06:33:24;;;;;;;9.68;3.15;;;;;;;;;;4977272;28;20058;-77
2023/10/01 06:36:15;;;;;;;10.43;3.20;;;;;;;;;;4976620;28;20100;-77
2023/10/01 06:38:37;;;;;;;8.40;3.33;;;;;;;;;;4976173;28;20037;-77
2023/10/01 06:41:06;;;;;;;14.65;3.13;;;;;;;;;;4977324;28;20106;-78
2023/10/01 06:43:32;;;;;;;16.05;4.07;;;;;;;;;;4975941;28;20034;-78
2023/10/01 06:45:59;;;;;;;13.32;3.40;;;;;;;;;;4976172;28;20110;-78
2023/10/01 06:48:27;;;;;;;11.73;2.85;;;;;;;;;;4976990;28;20060;-78
2023/10/01 06:50:53;;;;;;;12.30;3.17;;;;;;;;;;4975965;28;20054;-78
2023/10/01 06:53:19;;;;;;;7.03;2.35;;;;;;;;;;4975620;28;20060;-78
2023/10/01 06:55:47;;;;;;;10.15;2.75;;;;;;;;;;4977176;28;20066;-79
2023/10/01 06:58:13;;;;;;;13.38;3.13;;;;;;;;;;4977193;28;20038;-78
2023/10/01 07:00:41;;;;;;;11.80;2.60;;;;;;;;;;4977512;28;20027;-77
2023/10/01 07:03:21;;;;;;;8.07;2.90;;;;;;;;;;4975892;28;20022;-78
2023/10/01 07:05:51;;;;;;;7.45;2.60;;;;;;;;;;4976805;28;20481;-78
2023/10/01 07:08:18;;;;;;;10.57;2.70;;;;;;;;;;4975650;28;20114;-78
2023/10/01 07:10:46;;;;;;;8.48;2.45;;;;;;;;;;4976796;28;20093;-78
2023/10/01 07:13:15;;;;;;;9.55;2.05;;;;;;;;;;4976429;28;20035;-79
2023/10/01 07:15:43;;;;;;;11.30;2.70;;;;;;;;;;4959683;28;20089;-78
2023/10/01 07:18:15;;;;;;;7.15;2.33;;;;;;;;;;4976754;28;20122;-78
2023/10/01 07:20:44;;;;;;;8.40;2.05;;;;;;;;;;4976727;28;20105;-77
2023/10/01 07:23:11;;;;;;;;;;;;;;;;;;4959839;28;20042;-78
2023/10/01 07:25:42;;;;;;;8.52;2.60;;;;;;;;;;4975210;28;20322;-77
2023/10/01 07:28:12;;;;;;;7.43;2.15;;;;;;;;;;4976777;28;20027;-78
2023/10/01 07:30:45;;;;;;;7.75;1.88;;;;;;;;;;4976838;28;20022;-79
2023/10/01 07:33:17;;;;;;;7.00;2.10;;;;;;;;;;4980852;28;20098;-78
2023/10/01 07:35:44;;;;;;;8.90;2.20;;;;;;;;;;4975789;28;20037;-78
2023/10/01 07:38:15;;;;;;;9.32;2.38;;;;;;;;;;4975858;28;20058;-78
2023/10/01 07:40:57;;;;;;;6.55;2.15;;;;;;;;;;4975336;28;20114;-79
2023/10/01 07:43:26;;;;;;;7.82;2.08;;;;;;;;;;4975469;28;20034;-78
2023/10/01 07:45:55;;;;;;;8.68;2.15;;;;;;;;;;4958710;28;20046;-78
2023/10/01 07:48:23;;;;;;;5.65;1.95;;;;;;;;;;4974942;28;20077;-79
2023/10/01 07:50:48;;;;;;;6.85;1.92;;;;;;;;;;4974587;28;20475;-77
2023/10/01 07:53:14;;;;;;;7.60;1.90;;;;;;;;;;4975663;28;20039;-79
2023/10/01 07:55:41;;;;;;;11.65;2.05;;;;;;;;;;4976003;28;20038;-78
2023/10/01 08:03:57;;;;;;;6.50;1.92;;;;;;;;;;4944995;28;20109;-78
2023/10/01 08:06:41;;;;;;;8.57;2.38;;;;;;;;;;4976495;28;20133;-78
2023/10/01 08:09:08;;;;;;;6.03;1.95;;;;;;;;;;4975435;28;20516;-78
2023/10/01 08:11:58;;;;;;;8.90;2.00;;;;;;;;;;4976075;28;20062;-78
2023/10/01 08:14:27;;;;;;;6.72;2.83;;;;;;;;;;4960232;28;20426;-78
2023/10/01 08:16:56;;;;;;;8.73;2.28;;;;;;;;;;4981569;28;20046;-77
2023/10/01 08:19:49;;;;;;;6.38;2.25;;;;;;;;;;4982239;28;20474;-79
2023/10/01 08:22:22;;;;;;;9.75;2.22;;;;;;;;;;4983414;28;20095;-77
2023/10/01 08:24:49;;;;;;;6.68;2.10;;;;;;;;;;4966144;28;20138;-78
2023/10/01 08:27:29;;;;;;;6.30;2.30;;;;;;;;;;4982594;28;20114;-77
2023/10/01 08:32:41;;;;;;;8.50;2.22;;;;;;;;;;4974647;28;20062;-77
2023/10/01 08:35:07;;;;;;;8.52;2.20;;;;;;;;;;4975473;28;20037;-77
2023/10/01 08:37:37;;;;;;;13.15;2.53;;;;;;;;;;4958974;28;20121;-79
2023/10/01 08:40:04;;;;;;;9.38;2.22;;;;;;;;;;4975286;28;20114;-77
2023/10/01 08:42:30;;;;;;;4.68;1.95;;;;;;;;;;4973951;28;20039;-78
2023/10/01 08:45:03;;;;;;;8.93;2.67;;;;;;;;;;4975176;28;20390;-77
2023/10/01 08:49:57;;;;;;;7.40;2.42;;;;;;;;;;4974847;28;20030;-78
2023/10/01 08:52:27;;;;;;;9.63;2.50;;;;;;;;;;4973677;28;20034;-77
2023/10/01 08:54:56;;;;;;;10.25;2.60;;;;;;;;;;4975344;28;20027;-77
2023/10/01 08:57:37;;;;;;;9.80;3.53;;;;;;;;;;4975007;28;20484;-76
2023/10/01 09:00:14;;;;;;;12.43;2.33;;;;;;;;;;4973539;28;20035;-78
2023/10/01 09:02:39;;;;;;;7.53;2.88;;;;;;;;;;4973515;28;20485;-76
2023/10/01 09:05:08;;;;;;;11.25;2.65;;;;;;;;;;4974571;28;20115;-77
2023/10/01 09:07:46;;;;;;;7.25;2.88;;;;;;;;;;4973813;28;20062;-77
2023/10/01 09:10:17;;;;;;;7.55;2.75;;;;;;;;;;4975173;28;20081;-77
2023/10/01 09:12:46;;;;;;;7.28;2.67;;;;;;;;;;4973389;28;20092;-77
2023/10/01 09:15:27;;;;;;;8.90;2.88;;;;;;;;;;4974300;28;20399;-78
2023/10/01 09:17:59;;;;;;;8.05;3.00;;;;;;;;;;4974862;28;20037;-77
2023/10/01 09:20:37;;;;;;;7.97;2.55;;;;;;;;;;4974728;28;20027;-78
2023/10/01 09:23:02;;;;;;;9.85;2.90;;;;;;;;;;4974658;28;20407;-78
2023/10/01 09:25:30;;;;;;;12.43;3.13;;;;;;;;;;4941847;28;20031;-78
2023/10/01 09:28:19;;;;;;;6.93;2.73;;;;;;;;;;4973056;28;20029;-79
2023/10/01 09:31:26;;;;;;;6.35;2.25;;;;;;;;;;4973703;28;20038;-78
2023/10/01 09:33:49;;;;;;;8.82;2.80;;;;;;;;;;4974568;28;20038;-78
2023/10/01 09:36:35;;;;;;;11.02;3.20;;;;;;;;;;4974561;28;20474;-79
2023/10/01 09:39:03;;;;;;;7.18;2.67;;;;;;;;;;4974500;28;20479;-77
2023/10/01 09:41:36;;;;;;;9.23;2.95;;;;;;;;;;4973628;28;20041;-78
2023/10/01 09:44:02;;;;;;;10.38;3.05;;;;;;;;;;4974976;28;20034;-78
2023/10/01 09:46:33;;;;;;;12.70;3.45;;;;;;;;;;4975021;28;20022;-77
2023/10/01 09:49:01;;;;;;;10.07;2.90;;;;;;;;;;4961110;28;20058;-79
2023/10/01 09:51:31;;;;;;;6.68;2.83;;;;;;;;;;4961866;28;20159;-79
2023/10/01 09:54:02;;;;;;;8.63;2.67;;;;;;;;;;4977099;28;20027;-79
2023/10/01 09:56:39;;;;;;;9.43;2.92;;;;;;;;;;4961543;28;20058;-78
2023/10/01 09:59:08;;;;;;;7.78;2.78;;;;;;;;;;4979088;28;20067;-80
2023/10/01 10:01:35;;;;;;;11.00;2.75;;;;;;;;;;4980807;28;20492;-80
2023/10/01 10:04:02;;;;;;;10.15;3.35;;;;;;;;;;4961626;28;20450;-78
2023/10/01 10:06:29;;;;;;;6.03;2.50;;;;;;;;;;4978344;28;20510;-78
2023/10/01 10:09:03;;;;;;;9.60;2.95;;;;;;;;;;4962512;28;20037;-79
2023/10/01 10:11:29;;;;;;;7.25;2.70;;;;;;;;;;4961709;28;20038;-78
2023/10/01 10:13:58;;;;;;;6.85;2.75;;;;;;;;;;4978857;28;20042;-79
2023/10/01 10:16:30;;;;;;;16.05;3.50;;;;;;;;;;4980855;28;20050;-77
2023/10/01 10:19:22;;;;;;;9.82;3.35;;;;;;;;;;4981935;28;20035;-79
2023/10/01 10:24:29;;;;;;;8.77;2.95;;;;;;;;;;4978595;28;20387;-78
2023/10/01 10:26:59;;;;;;;9.00;3.38;;;;;;;;;;4980170;28;20510;-78
2023/10/01 10:29:46;;;;;;;8.52;3.20;;;;;;;;;;4978750;28;20027;-78
2023/10/01 10:32:12;;;;;;;8.95;3.10;;;;;;;;;;4979901;28;20034;-78
2023/10/01 10:34:47;;;;;;;6.65;2.70;;;;;;;;;;4979005;28;20069;-79
2023/10/01 10:37:32;;;;;;;9.05;3.30;;;;;;;;;;4978557;28;20031;-79
2023/10/01 10:40:13;;;;;;;12.25;3.10;;;;;;;;;;4978285;28;20034;-80
2023/10/01 10:42:39;;;;;;;8.52;3.15;;;;;;;;;;4979995;28;20030;-78
2023/10/01 10:45:21;;;;;;;12.10;3.00;;;;;;;;;;4978433;28;20041;-78
2023/10/01 10:47:58;;;;;;;7.93;3.28;;;;;;;;;;4978345;28;20550;-79
2023/10/01 10:50:44;;;;;;;10.80;3.28;;;;;;;;;;4962021;28;20117;-80
2023/10/01 10:53:39;;;;;;;10.15;3.50;;;;;;;;;;4984521;28;20054;-79
2023/10/01 10:56:08;;;;;;;8.68;3.30;;;;;;;;;;4989369;28;20042;-80
2023/10/01 10:58:43;;;;;;;13.20;3.63;;;;;;;;;;4987633;28;20050;-80
2023/10/01 11:01:15;;;;;;;17.20;3.67;;;;;;;;;;4988820;28;20030;-79
2023/10/01 11:03:43;;;;;;;8.18;3.28;;;;;;;;;;4984764;28;20054;-77
2023/10/01 11:06:29;;;;;;;7.25;3.05;;;;;;;;;;4970505;28;20030;-79
2023/10/01 11:08:57;;;;;;;7.32;3.15;;;;;;;;;;4964617;28;20038;-80
2023/10/01 11:11:41;;;;;;;10.65;3.45;;;;;;;;;;4980647;28;20037;-80
2023/10/01 11:14:15;;;;;;;8.77;3.42;;;;;;;;;;4983092;28;20400;-80
2023/10/01 11:16:44;;;;;;;8.52;2.92;;;;;;;;;;4980790;28;20495;-79
2023/10/01 11:19:13;;;;;;;6.70;3.10;;;;;;;;;;4978297;28;20545;-79
2023/10/01 11:21:55;;;;;;;9.13;2.80;;;;;;;;;;4978915;28;20033;-80
2023/10/01 11:24:22;;;;;;;7.90;3.17;;;;;;;;;;4977718;28;20376;-80
2023/10/01 11:27:11;;;;;;;12.18;3.33;;;;;;;;;;4977807;28;20114;-78
2023/10/01 11:29:38;;;;;;;8.48;3.15;;;;;;;;;;4978669;28;20395;-80
2023/10/01 11:32:05;;;;;;;9.38;3.35;;;;;;;;;;4977843;28;20387;-79
2023/10/01 11:34:43;;;;;;;10.18;3.65;;;;;;;;;;4976859;28;20394;-80
2023/10/01 11:37:18;;;;;;;14.90;3.95;;;;;;;;;;4961460;28;20027;-79
2023/10/01 11:39:52;;;;;;;7.82;2.97;;;;;;;;;;4976907;28;20049;-79
2023/10/01 11:42:35;;;;;;;10.70;3.22;;;;;;;;;;4978511;28;20092;-79
2023/10/01 11:45:29;;;;;;;11.38;3.72;;;;;;;;;;4978373;28;20118;-78
2023/10/01 11:48:19;;;;;;;7.57;3.00;;;;;;;;;;4977061;28;20027;-79
2023/10/01 11:50:50;;;;;;;9.10;3.08;;;;;;;;;;4977620;28;20039;-81
2023/10/01 11:53:28;;;;;;;8.05;2.70;;;;;;;;;;4977723;28;20031;-79
2023/10/01 11:56:01;;;;;;;7.15;2.75;;;;;;;;;;4982028;28;20041;-79
2023/10/01 11:58:27;;;;;;;7.82;2.58;;;;;;;;;;4979464;28;20545;-79
2023/10/01 12:00:53;;;;;;;6.80;3.08;;;;;;;;;;4964305;28;20041;-80
2023/10/01 12:03:18;;;;;;;11.63;2.75;;;;;;;;;;4967863;28;20031;-79
2023/10/01 12:05:46;;;;;;;8.77;2.83;;;;;;;;;;4984987;28;20041;-79
2023/10/01 12:08:18;;;;;;;8.63;2.73;;;;;;;;;;4970160;28;20153;-78
2023/10/01 12:10:44;;;;;;;5.65;2.33;;;;;;;;;;4980323;28;20027;-79
2023/10/01 12:13:10;;;;;;;8.18;2.75;;;;;;;;;;4979201;28;20094;-80
2023/10/01 12:15:50;;;;;;;6.57;2.50;;;;;;;;;;4977993;28;20085;-78
2023/10/01 12:18:17;;;;;;;6.45;2.38;;;;;;;;;;4944799;28;20041;-78
2023/10/01 12:20:55;;;;;;;7.55;2.90;;;;;;;;;;4960557;28;20088;-80
2023/10/01 12:23:22;;;;;;;7.90;2.65;;;;;;;;;;4960979;28;20408;-80
2023/10/01 12:28:18;;;;;;;9.38;3.03;;;;;;;;;;4977943;28;20031;-80
2023/10/01 12:30:44;;;;;;;6.10;2.95;;;;;;;;;;4980134;28;20026;-79
2023/10/01 12:33:10;;;;;;;8.23;2.85;;;;;;;;;;4976103;28;20060;-80
2023/10/01 12:35:36;;;;;;;8.75;3.28;;;;;;;;;;4975529;28;20027;-80
2023/10/01 12:40:52;;;;;;;8.65;3.30;;;;;;;;;;4975021;28;20525;-78
2023/10/01 12:46:09;;;;;;;8.68;3.22;;;;;;;;;;4977094;28;20037;-79
2023/10/01 12:48:35;;;;;;;11.18;3.28;;;;;;;;;;4975517;28;20483;-79
2023/10/01 12:51:03;;;;;;;7.60;3.15;;;;;;;;;;4975541;28;20031;-80
2023/10/01 12:53:47;;;;;;;8.25;2.97;;;;;;;;;;4958963;28;20085;-79
2023/10/01 12:56:13;;;;;;;12.38;3.17;;;;;;;;;;4976424;28;20031;-78
2023/10/01 12:58:39;;;;;;;8.27;3.35;;;;;;;;;;4977579;28;20078;-79
2023/10/01 13:01:06;;;;;;;11.07;3.50;;;;;;;;;;4979273;28;20035;-80
2023/10/01 13:03:31;;;;;;;7.78;3.08;;;;;;;;;;4976565;28;20031;-79
2023/10/01 13:06:05;;;;;;;11.95;3.38;;;;;;;;;;4980216;28;20105;-79
2023/10/01 13:08:31;;;;;;;9.18;3.25;;;;;;;;;;4960183;28;20096;-80
2023/10/01 13:10:57;;;;;;;8.55;3.30;;;;;;;;;;4975083;28;20023;-79
2023/10/01 13:13:29;;;;;;;6.43;3.10;;;;;;;;;;4974766;28;20054;-80
2023/10/01 13:15:56;;;;;;;7.57;3.30;;;;;;;;;;4975380;28;20577;-79
2023/10/01 13:18:28;;;;;;;9.73;3.92;;;;;;;;;;4974559;28;20166;-78
2023/10/01 13:23:28;;;;;;;8.40;3.42;;;;;;;;;;4977769;28;20035;-80
2023/10/01 13:26:05;;;;;;;11.38;3.78;;;;;;;;;;4978428;28;20033;-81
2023/10/01 13:33:56;;;;;;;10.50;4.30;;;;;;;;;;4986615;28;20031;-79
2023/10/01 13:36:35;;;;;;;8.73;3.70;;;;;;;;;;4988251;28;20035;-78
2023/10/01 14:09:46;;;;;;;10.50;4.50;;;;;;;;;;4973983;28;20049;-79
2023/10/01 14:12:04;;;;;;;11.18;4.80;;;;;;;;;;4974875;28;20035;-78
2023/10/01 14:14:33;;;;;;;12.65;4.60;;;;;;;;;;4973946;28;20035;-79
2023/10/01 14:17:13;;;;;;;11.40;4.78;;;;;;;;;;4975903;28;20030;-78
2023/10/01 14:19:42;;;;;;;16.98;5.10;;;;;;;;;;4975819;28;20090;-79
2023/10/01 14:22:18;;;;;;;13.57;5.22;;;;;;;;;;4976370;28;20027;-79
2023/10/01 14:24:48;;;;;;;11.10;4.90;;;;;;;;;;4975460;28;20035;-79
2023/10/01 14:27:24;;;;;;;12.25;4.82;;;;;;;;;;4962257;28;20054;-79
2023/10/01 14:30:01;;;;;;;13.40;4.88;;;;;;;;;;4983600;28;20101;-78
2023/10/01 14:32:34;;;;;;;12.77;4.90;;;;;;;;;;4983310;28;20491;-79
2023/10/01 14:35:01;;;;;;;13.50;5.30;;;;;;;;;;4988762;28;20034;-79
2023/10/01 14:37:32;;;;;;;12.85;5.40;;;;;;;;;;4993514;28;20035;-80
2023/10/01 14:40:13;;;;;;;11.40;5.13;;;;;;;;;;4990747;28;20105;-80
2023/10/01 14:42:38;;;;;;;10.23;4.95;;;;;;;;;;4991619;28;20030;-80
2023/10/01 14:45:05;;;;;;;14.38;5.18;;;;;;;;;;4988996;28;20062;-80
2023/10/01 14:47:31;;;;;;;14.40;6.13;;;;;;;;;;4989621;28;20447;-79
2023/10/01 14:49:57;;;;;;;15.50;5.65;;;;;;;;;;4989258;28;20230;-79
2023/10/01 14:52:23;;;;;;;11.65;4.97;;;;;;;;;;4987188;28;20042;-81
2023/10/01 14:54:49;;;;;;;12.57;5.65;;;;;;;;;;4968964;28;20043;-80
2023/10/01 14:57:16;;;;;;;11.02;5.15;;;;;;;;;;4982057;28;20031;-81
2023/10/01 14:59:43;;;;;;;11.40;4.60;;;;;;;;;;4981183;28;20062;-81
2023/10/01 15:02:15;;;;;;;15.50;5.70;;;;;;;;;;4964450;28;20035;-79
2023/10/01 15:04:40;;;;;;;14.60;5.95;;;;;;;;;;4963607;28;20043;-80
2023/10/01 15:07:06;;;;;;;13.38;4.95;;;;;;;;;;4979467;28;20033;-79
2023/10/01 15:09:36;;;;;;;15.55;6.07;;;;;;;;;;4979668;28;20529;-80
2023/10/01 15:12:04;;;;;;;14.30;5.53;;;;;;;;;;4980010;28;20106;-79
2023/10/01 15:14:32;;;;;;;14.20;5.82;;;;;;;;;;4962184;28;20031;-81
2023/10/01 15:16:59;;;;;;;13.43;6.30;;;;;;;;;;4983629;28;20370;-80
2023/10/01 15:19:25;;;;;;;14.55;5.65;;;;;;;;;;4987336;28;20019;-79
2023/10/01 15:21:55;;;;;;;15.48;5.43;;;;;;;;;;4987040;28;20026;-81
2023/10/01 15:24:21;;;;;;;12.77;5.47;;;;;;;;;;4984816;28;20057;-81
2023/10/01 15:26:47;;;;;;;14.00;5.40;;;;;;;;;;4971748;28;20054;-79
2023/10/01 15:29:12;;;;;;;17.40;5.68;;;;;;;;;;4986984;28;20030;-80
2023/10/01 15:31:38;;;;;;;16.38;6.57;;;;;;;;;;4987967;28;20065;-81
2023/10/01 15:34:15;;;;;;;15.70;5.15;;;;;;;;;;4985627;28;20035;-80
2023/10/01 15:36:41;;;;;;;12.43;5.45;;;;;;;;;;4985957;28;20090;-80
2023/10/01 15:42:13;;;;;;;14.43;5.30;;;;;;;;;;4979233;28;20042;-80
2023/10/01 15:44:46;;;;;;;13.55;5.47;;;;;;;;;;4976706;28;20111;-80
2023/10/01 15:47:43;;;;;;;12.50;5.20;;;;;;;;;;4961674;28;20048;-78
2023/10/01 15:50:10;;;;;;;11.27;5.00;;;;;;;;;;4978419;28;20031;-80
2023/10/01 15:52:45;;;;;;;13.65;5.40;;;;;;;;;;4979142;28;20030;-80
2023/10/01 15:55:13;;;;;;;14.68;5.50;;;;;;;;;;4961819;28;20038;-81
2023/10/01 15:57:38;;;;;;;13.63;4.95;;;;;;;;;;4945853;28;20045;-78
2023/10/01 16:00:23;;;;;;;12.65;5.13;;;;;;;;;;4977287;28;20117;-80
2023/10/01 16:02:49;;;;;;;15.98;5.28;;;;;;;;;;4977519;28;20037;-80
2023/10/01 16:05:15;;;;;;;15.57;5.63;;;;;;;;;;4961294;28;20034;-80
2023/10/01 16:07:44;;;;;;;12.63;5.57;;;;;;;;;;4979936;28;20022;-79